Time;durP1;ratioP1;P1;durP2;ratioP2;P2;SDS_P1;SDS_P2;PMS_P1;PMS_P2;Temp;Humidity;BMP_temperature;BMP_pressure;BME280_temperature;BME280_humidity;BME280_pressure;Samples;Min_cycle;Max_cycle;Signal;HPM_P1;HPM_P2
2021/03/02 00:00:53;;;;;;;37.17;18.92;;;4.90;99.90;;;;;;5018022;28;20030;-74
2021/03/02 00:03:20;;;;;;;44.67;19.73;;;4.80;99.90;;;;;;5017521;28;20093;-75
2021/03/02 00:05:47;;;;;;;46.15;19.60;;;4.80;99.90;;;;;;5018321;28;20026;-75
2021/03/02 00:08:13;;;;;;;45.33;20.67;;;4.80;99.90;;;;;;5017562;28;20073;-75
2021/03/02 00:10:42;;;;;;;38.67;19.52;;;4.80;99.90;;;;;;5017034;28;20772;-75
2021/03/02 00:13:11;;;;;;;44.33;19.30;;;4.80;99.90;;;;;;5017782;28;20087;-75
2021/03/02 00:15:38;;;;;;;46.53;20.55;;;4.70;99.90;;;;;;5018163;28;20442;-74
2021/03/02 00:18:06;;;;;;;46.88;20.65;;;4.70;99.90;;;;;;5017646;28;20040;-75
2021/03/02 00:20:35;;;;;;;42.88;19.02;;;4.70;99.90;;;;;;5020670;28;20026;-76
2021/03/02 00:23:28;;;;;;;42.58;19.80;;;4.70;99.90;;;;;;5023807;28;20041;-74
2021/03/02 00:25:56;;;;;;;40.45;19.00;;;4.60;99.90;;;;;;5017958;28;20092;-75
2021/03/02 00:28:24;;;;;;;38.20;18.58;;;4.60;99.90;;;;;;5018450;28;20029;-75
2021/03/02 00:30:52;;;;;;;42.58;20.45;;;4.60;99.90;;;;;;5019320;28;20022;-73
2021/03/02 00:33:20;;;;;;;42.45;18.85;;;4.60;99.90;;;;;;5020372;28;20466;-75
2021/03/02 00:35:46;;;;;;;39.47;18.02;;;4.50;99.90;;;;;;5023759;28;20018;-75
2021/03/02 00:38:11;;;;;;;42.30;19.45;;;4.50;99.90;;;;;;5022869;28;20065;-74
2021/03/02 00:40:37;;;;;;;42.10;20.33;;;4.50;99.90;;;;;;5016808;28;20030;-75
2021/03/02 00:43:03;;;;;;;43.00;19.30;;;4.50;99.90;;;;;;5013773;28;20026;-76
2021/03/02 00:45:28;;;;;;;43.20;20.75;;;4.50;99.90;;;;;;5014172;28;20104;-75
2021/03/02 00:47:54;;;;;;;44.75;20.30;;;4.40;99.90;;;;;;5014040;28;20469;-75
2021/03/02 00:50:22;;;;;;;43.70;19.88;;;4.40;99.90;;;;;;5013726;28;20125;-75
2021/03/02 00:52:48;;;;;;;41.63;19.83;;;4.40;99.90;;;;;;5013213;28;20041;-75
2021/03/02 00:55:14;;;;;;;41.25;18.95;;;4.30;99.90;;;;;;5013554;28;20022;-74
2021/03/02 00:57:39;;;;;;;40.72;18.92;;;4.30;99.90;;;;;;5013756;28;20029;-75
2021/03/02 01:00:07;;;;;;;41.63;19.63;;;4.30;99.90;;;;;;5013115;28;20026;-74
2021/03/02 01:02:33;;;;;;;39.63;19.75;;;4.30;99.90;;;;;;5013970;28;20038;-74
2021/03/02 01:04:59;;;;;;;44.17;20.50;;;4.30;99.90;;;;;;5013509;28;20052;-74
2021/03/02 01:07:24;;;;;;;36.75;18.85;;;4.20;99.90;;;;;;5013487;28;20026;-74
2021/03/02 01:09:50;;;;;;;38.20;20.05;;;4.20;99.90;;;;;;5013593;28;20422;-75
2021/03/02 01:12:16;;;;;;;37.28;17.95;;;4.20;99.90;;;;;;5013048;28;20022;-75
2021/03/02 01:14:41;;;;;;;45.90;20.90;;;4.20;99.90;;;;;;5013695;28;20105;-74
2021/03/02 01:17:07;;;;;;;40.58;18.50;;;4.20;99.90;;;;;;5013409;28;20026;-74
2021/03/02 01:19:33;;;;;;;47.03;20.35;;;4.10;99.90;;;;;;5012980;28;20037;-74
2021/03/02 01:21:58;;;;;;;47.42;20.08;;;4.10;99.90;;;;;;5013888;28;20045;-74
2021/03/02 01:24:24;;;;;;;46.15;19.88;;;4.10;99.90;;;;;;5014403;28;20463;-75
2021/03/02 01:26:50;;;;;;;39.63;19.00;;;4.00;99.90;;;;;;5013630;28;20030;-74
2021/03/02 01:29:15;;;;;;;41.90;19.63;;;4.00;99.90;;;;;;5013703;28;20101;-75
2021/03/02 01:31:41;;;;;;;39.92;18.35;;;3.90;99.90;;;;;;5013900;28;20026;-75
2021/03/02 01:34:06;;;;;;;42.38;19.70;;;3.90;99.90;;;;;;5013214;28;20505;-74
2021/03/02 01:36:32;;;;;;;42.13;19.55;;;3.90;99.90;;;;;;5013934;28;20060;-74
2021/03/02 01:38:58;;;;;;;37.83;19.02;;;3.80;99.90;;;;;;5013759;28;20061;-74
2021/03/02 01:41:23;;;;;;;40.83;20.25;;;3.80;99.90;;;;;;5013313;28;20116;-75
2021/03/02 01:43:49;;;;;;;41.80;19.20;;;3.80;99.90;;;;;;5014049;28;20026;-74
2021/03/02 01:46:15;;;;;;;37.10;18.58;;;3.80;99.90;;;;;;5013491;28;20052;-74
2021/03/02 01:48:41;;;;;;;43.35;18.48;;;3.70;99.90;;;;;;5013117;28;20030;-74
2021/03/02 01:51:08;;;;;;;40.97;18.80;;;3.70;99.90;;;;;;5013240;28;20105;-74
2021/03/02 01:53:34;;;;;;;44.38;19.65;;;3.70;99.90;;;;;;5013221;28;20044;-75
2021/03/02 01:56:00;;;;;;;38.40;17.98;;;3.60;99.90;;;;;;5012300;28;20477;-74
2021/03/02 01:58:27;;;;;;;45.70;20.08;;;3.60;99.90;;;;;;5013600;28;20116;-75
2021/03/02 02:00:57;;;;;;;44.50;19.95;;;3.70;99.90;;;;;;5013548;28;20429;-75
2021/03/02 02:03:40;;;;;;;45.85;20.33;;;3.60;99.90;;;;;;5012994;28;20026;-74
2021/03/02 02:06:30;;;;;;;43.33;19.25;;;3.60;99.90;;;;;;5014815;28;20032;-74
2021/03/02 02:09:11;;;;;;;45.22;19.25;;;3.60;99.90;;;;;;5012509;28;20061;-75
2021/03/02 02:11:40;;;;;;;;;;;3.60;99.90;;;;;;5016370;28;20373;-75
2021/03/02 02:14:20;;;;;;;37.28;18.58;;;3.50;99.90;;;;;;5013840;28;19912;-75
2021/03/02 02:16:49;;;;;;;45.30;19.67;;;3.60;99.90;;;;;;5013065;28;20507;-75
2021/03/02 02:19:52;;;;;;;41.38;18.77;;;3.50;99.90;;;;;;5013286;28;20038;-74
2021/03/02 02:22:20;;;;;;;48.33;20.45;;;3.50;99.90;;;;;;5019292;28;20049;-75
2021/03/02 02:25:03;;;;;;;45.53;19.95;;;3.50;99.90;;;;;;5019478;28;20018;-75
2021/03/02 02:27:31;;;;;;;41.78;18.98;;;3.50;99.90;;;;;;5008988;28;20484;-74
2021/03/02 02:29:59;;;;;;;40.95;18.92;;;3.50;99.90;;;;;;5012181;28;20030;-74
2021/03/02 02:32:26;;;;;;;44.97;19.88;;;3.50;99.90;;;;;;5013847;28;20032;-75
2021/03/02 02:34:54;;;;;;;42.17;19.10;;;3.50;99.90;;;;;;5013597;28;20022;-73
2021/03/02 02:37:22;;;;;;;42.40;19.80;;;3.50;99.90;;;;;;5021260;28;20100;-74
2021/03/02 02:39:48;;;;;;;45.85;20.52;;;3.40;99.90;;;;;;5015726;28;20029;-74
2021/03/02 02:42:15;;;;;;;45.70;20.15;;;3.40;99.90;;;;;;5012622;28;20596;-74
2021/03/02 02:44:41;;;;;;;44.28;20.17;;;3.40;99.90;;;;;;4998292;28;20029;-74
2021/03/02 02:47:08;;;;;;;49.25;20.08;;;3.40;99.90;;;;;;5012732;28;20116;-73
2021/03/02 02:49:35;;;;;;;49.85;21.92;;;3.40;99.90;;;;;;5012549;28;20018;-74
2021/03/02 02:52:01;;;;;;;51.55;22.58;;;3.40;99.90;;;;;;5011965;28;20026;-73
2021/03/02 02:54:27;;;;;;;52.10;21.60;;;3.50;99.90;;;;;;5012587;28;20121;-74
2021/03/02 02:56:55;;;;;;;47.55;19.92;;;3.40;99.90;;;;;;5012477;28;20022;-74
2021/03/02 02:59:34;;;;;;;54.47;21.38;;;3.40;99.90;;;;;;5011447;28;20057;-74
2021/03/02 03:02:07;;;;;;;46.22;19.42;;;3.40;99.90;;;;;;5012024;28;20041;-73
2021/03/02 03:04:43;;;;;;;44.83;19.75;;;3.40;99.90;;;;;;5011264;28;20028;-74
2021/03/02 03:07:22;;;;;;;47.75;21.38;;;3.40;99.90;;;;;;5011779;28;20073;-73
2021/03/02 03:09:49;;;;;;;45.47;20.20;;;3.40;99.90;;;;;;5008372;28;20073;-74
2021/03/02 03:12:15;;;;;;;46.60;19.75;;;3.40;99.90;;;;;;5011558;28;20026;-75
2021/03/02 03:15:03;;;;;;;46.33;19.75;;;3.40;99.90;;;;;;5012107;28;20024;-75
2021/03/02 03:17:32;;;;;;;45.22;19.45;;;3.30;99.90;;;;;;5012195;28;20030;-74
2021/03/02 03:19:58;;;;;;;47.55;19.55;;;3.30;99.90;;;;;;5007202;28;20084;-73
2021/03/02 03:22:24;;;;;;;49.92;19.90;;;3.30;99.90;;;;;;5012247;28;20080;-73
2021/03/02 03:24:50;;;;;;;40.83;19.20;;;3.30;99.90;;;;;;5012074;28;20076;-74
2021/03/02 03:27:17;;;;;;;54.70;20.52;;;3.30;99.90;;;;;;5011127;28;20109;-73
2021/03/02 03:29:45;;;;;;;49.35;19.90;;;3.30;99.90;;;;;;5012746;28;20058;-75
2021/03/02 03:32:11;;;;;;;51.10;20.67;;;3.30;99.90;;;;;;5011913;28;20117;-76
2021/03/02 03:34:40;;;;;;;41.13;19.45;;;3.20;99.90;;;;;;5012632;28;20044;-75
2021/03/02 03:37:05;;;;;;;54.15;21.27;;;3.20;99.90;;;;;;5013829;28;20378;-74
2021/03/02 03:39:31;;;;;;;43.35;20.13;;;3.20;99.90;;;;;;5015992;28;20030;-74
2021/03/02 03:41:57;;;;;;;50.55;19.60;;;3.10;99.90;;;;;;5011181;28;20081;-74
2021/03/02 03:44:23;;;;;;;46.20;22.05;;;3.20;99.90;;;;;;5012508;28;20315;-74
2021/03/02 03:46:48;;;;;;;52.17;20.38;;;3.10;99.90;;;;;;5011577;28;20033;-74
2021/03/02 03:49:14;;;;;;;45.60;20.98;;;3.10;99.90;;;;;;5011180;28;20343;-74
2021/03/02 03:51:41;;;;;;;43.63;19.50;;;3.10;99.90;;;;;;5011677;28;20478;-73
2021/03/02 03:54:09;;;;;;;53.92;22.58;;;3.00;99.90;;;;;;5011177;28;20339;-74
2021/03/02 03:56:35;;;;;;;47.60;20.35;;;3.10;99.90;;;;;;5011852;28;20077;-73
2021/03/02 03:59:04;;;;;;;48.97;20.85;;;3.00;99.90;;;;;;5011688;28;20051;-74
2021/03/02 04:01:31;;;;;;;51.72;21.83;;;3.10;99.90;;;;;;5011047;28;20034;-75
2021/03/02 04:03:57;;;;;;;48.25;21.02;;;3.00;99.90;;;;;;5011466;28;20022;-75
2021/03/02 04:06:23;;;;;;;47.05;21.08;;;3.00;99.90;;;;;;5012037;28;20037;-75
2021/03/02 04:08:49;;;;;;;45.80;19.92;;;3.00;99.90;;;;;;5010626;28;20414;-73
2021/03/02 04:11:15;;;;;;;46.20;20.67;;;3.00;99.90;;;;;;5011622;28;20422;-74
2021/03/02 04:13:43;;;;;;;50.83;20.15;;;3.00;99.90;;;;;;5011642;28;20545;-74
2021/03/02 04:16:09;;;;;;;46.03;20.65;;;2.90;99.90;;;;;;5012447;28;20033;-74
2021/03/02 04:18:36;;;;;;;50.00;21.23;;;2.90;99.90;;;;;;5001186;28;20126;-74
2021/03/02 04:21:02;;;;;;;50.78;20.80;;;2.90;99.90;;;;;;5015446;28;20470;-74
2021/03/02 04:23:30;;;;;;;53.28;20.92;;;2.80;99.90;;;;;;5025735;28;20030;-73
2021/03/02 04:25:56;;;;;;;43.75;20.10;;;2.90;99.90;;;;;;5017896;28;20022;-74
2021/03/02 04:28:22;;;;;;;51.70;20.52;;;2.80;99.90;;;;;;5015618;28;20018;-74
2021/03/02 04:30:47;;;;;;;45.70;20.77;;;2.80;99.90;;;;;;5014541;28;20026;-74
2021/03/02 04:33:13;;;;;;;47.45;20.30;;;2.80;99.90;;;;;;5021141;28;20113;-75
2021/03/02 04:35:38;;;;;;;49.30;20.92;;;2.80;99.90;;;;;;5017781;28;20029;-74
2021/03/02 04:38:04;;;;;;;42.65;19.90;;;2.70;99.90;;;;;;5020803;28;20107;-74
2021/03/02 04:40:30;;;;;;;46.70;20.65;;;2.70;99.90;;;;;;5017103;28;20022;-75
2021/03/02 04:42:56;;;;;;;45.45;20.42;;;2.70;99.90;;;;;;5014397;28;20168;-74
2021/03/02 04:45:21;;;;;;;48.83;20.88;;;2.70;99.90;;;;;;5014237;28;20020;-73
2021/03/02 04:47:47;;;;;;;44.92;20.23;;;2.60;99.90;;;;;;5014539;28;20057;-73
2021/03/02 04:50:15;;;;;;;51.92;21.30;;;2.60;99.90;;;;;;5007411;28;20116;-75
2021/03/02 04:52:43;;;;;;;50.55;21.98;;;2.50;99.90;;;;;;5008482;28;20065;-74
2021/03/02 04:55:10;;;;;;;44.30;18.70;;;2.50;99.90;;;;;;5000987;28;20032;-75
2021/03/02 04:57:36;;;;;;;45.97;19.85;;;2.50;99.90;;;;;;5002252;28;20092;-75
2021/03/02 05:00:03;;;;;;;49.45;19.75;;;2.40;99.90;;;;;;5012640;28;20018;-74
2021/03/02 05:02:28;;;;;;;47.75;20.15;;;2.40;99.90;;;;;;5014859;28;20099;-73
2021/03/02 05:04:54;;;;;;;45.85;19.90;;;2.30;99.90;;;;;;5013900;28;20481;-74
2021/03/02 05:07:19;;;;;;;46.65;19.88;;;2.30;99.90;;;;;;5014394;28;20040;-74
2021/03/02 05:09:45;;;;;;;42.70;19.02;;;2.30;99.90;;;;;;5013942;28;20104;-73
2021/03/02 05:12:11;;;;;;;41.85;20.00;;;2.30;99.90;;;;;;5013326;28;20100;-73
2021/03/02 05:14:36;;;;;;;46.53;20.13;;;2.20;99.90;;;;;;5014285;28;20496;-75
2021/03/02 05:17:02;;;;;;;52.13;21.75;;;2.20;99.90;;;;;;5009997;28;20066;-74
2021/03/02 05:19:28;;;;;;;58.83;20.75;;;2.20;99.90;;;;;;5004003;28;20061;-74
2021/03/02 05:21:53;;;;;;;46.97;19.50;;;2.10;99.90;;;;;;5014086;28;20436;-74
2021/03/02 05:24:19;;;;;;;47.90;21.25;;;2.20;99.90;;;;;;5013907;28;20066;-74
2021/03/02 05:26:44;;;;;;;47.75;21.58;;;2.10;99.90;;;;;;5012687;28;20026;-74
2021/03/02 05:29:10;;;;;;;50.03;22.40;;;2.10;99.90;;;;;;5028525;28;20021;-73
2021/03/02 05:31:36;;;;;;;50.08;21.02;;;2.10;99.90;;;;;;5002058;28;20485;-74
2021/03/02 05:34:02;;;;;;;49.83;21.55;;;2.10;99.90;;;;;;5011018;28;20024;-74
2021/03/02 05:36:27;;;;;;;44.72;19.38;;;2.10;99.90;;;;;;5014148;28;20029;-74
2021/03/02 05:38:53;;;;;;;46.72;19.48;;;2.10;99.90;;;;;;5013695;28;20482;-73
2021/03/02 05:41:18;;;;;;;45.05;21.02;;;2.10;99.90;;;;;;5012713;28;20037;-74
2021/03/02 05:43:44;;;;;;;48.42;20.65;;;2.10;99.90;;;;;;5013792;28;20350;-73
2021/03/02 05:46:11;;;;;;;48.72;21.42;;;2.00;99.90;;;;;;5013500;28;20028;-73
2021/03/02 05:48:41;;;;;;;45.90;20.00;;;2.00;99.90;;;;;;5012909;28;20438;-73
2021/03/02 05:51:10;;;;;;;51.55;21.50;;;2.00;99.90;;;;;;5013003;28;20026;-74
2021/03/02 05:53:39;;;;;;;47.97;19.58;;;2.00;99.90;;;;;;5012746;28;20794;-74
2021/03/02 05:56:08;;;;;;;44.65;20.48;;;2.00;99.90;;;;;;5013170;28;20077;-75
2021/03/02 05:58:37;;;;;;;51.05;20.05;;;1.90;99.90;;;;;;5013563;28;20099;-74
2021/03/02 06:01:03;;;;;;;48.55;20.35;;;1.90;99.90;;;;;;5012598;28;20025;-75
2021/03/02 06:03:29;;;;;;;49.80;20.13;;;1.90;99.90;;;;;;5013389;28;20026;-74
2021/03/02 06:05:55;;;;;;;53.00;20.88;;;1.90;99.90;;;;;;5013131;28;20105;-73
2021/03/02 06:08:21;;;;;;;49.22;20.52;;;1.90;99.90;;;;;;5012268;28;20120;-74
2021/03/02 06:10:46;;;;;;;52.25;22.67;;;1.80;99.90;;;;;;5012861;28;20053;-76
2021/03/02 06:13:12;;;;;;;47.25;20.52;;;1.80;99.90;;;;;;4998929;28;20034;-74
2021/03/02 06:15:56;;;;;;;49.40;21.70;;;1.80;99.90;;;;;;5012506;28;20113;-75
2021/03/02 06:18:22;;;;;;;50.65;22.95;;;1.80;99.90;;;;;;5012963;28;20490;-74
2021/03/02 06:20:48;;;;;;;50.63;20.10;;;1.80;99.90;;;;;;5013337;28;20065;-75
2021/03/02 06:23:30;;;;;;;49.50;20.25;;;1.80;99.90;;;;;;5015259;28;20047;-74
2021/03/02 06:26:07;;;;;;;47.55;20.20;;;1.80;99.90;;;;;;5017461;28;20037;-74
2021/03/02 06:28:40;;;;;;;58.63;21.98;;;1.80;99.90;;;;;;5013245;28;20033;-73
2021/03/02 06:31:07;;;;;;;51.63;22.95;;;1.80;99.90;;;;;;5012600;28;20030;-73
2021/03/02 06:33:33;;;;;;;52.63;21.40;;;1.80;99.90;;;;;;5016704;28;20029;-74
2021/03/02 06:35:58;;;;;;;48.00;21.50;;;1.80;99.90;;;;;;5014868;28;20101;-74
2021/03/02 06:38:29;;;;;;;50.33;21.67;;;1.80;99.90;;;;;;5020418;28;20425;-75
2021/03/02 06:40:55;;;;;;;49.35;21.75;;;1.80;99.90;;;;;;5015727;28;20044;-74
2021/03/02 06:43:36;;;;;;;50.03;20.83;;;1.80;99.90;;;;;;5012453;28;20470;-74
2021/03/02 06:46:07;;;;;;;48.03;21.17;;;1.80;99.90;;;;;;5012319;28;20037;-74
2021/03/02 06:48:49;;;;;;;48.97;22.45;;;1.80;99.90;;;;;;5012631;28;20022;-73
2021/03/02 06:51:40;;;;;;;46.80;21.75;;;1.80;99.90;;;;;;5011652;28;20022;-74
2021/03/02 06:54:05;;;;;;;48.25;20.92;;;1.80;99.90;;;;;;5012492;28;20025;-74
2021/03/02 06:56:31;;;;;;;45.33;19.20;;;1.80;99.90;;;;;;5012313;28;20025;-73
2021/03/02 06:59:11;;;;;;;56.55;23.30;;;1.90;99.90;;;;;;5011657;28;20061;-75
2021/03/02 07:01:45;;;;;;;50.13;21.20;;;1.80;99.90;;;;;;5012384;28;20108;-74
2021/03/02 07:04:22;;;;;;;43.85;20.00;;;1.90;99.90;;;;;;5011036;28;20379;-74
2021/03/02 07:06:54;;;;;;;50.78;22.23;;;1.90;99.90;;;;;;5011789;28;20032;-74
2021/03/02 07:09:20;;;;;;;55.17;22.27;;;2.00;99.90;;;;;;5010959;28;20053;-73
2021/03/02 07:11:46;;;;;;;53.17;22.83;;;2.00;99.90;;;;;;5011191;28;20040;-74
2021/03/02 07:14:13;;;;;;;50.50;20.35;;;2.10;99.90;;;;;;5011145;28;20026;-74
2021/03/02 07:16:42;;;;;;;50.63;20.95;;;2.20;99.90;;;;;;5008184;28;20029;-75
2021/03/02 07:19:09;;;;;;;56.83;22.77;;;2.30;99.90;;;;;;5010227;28;20038;-73
2021/03/02 07:21:37;;;;;;;49.85;20.60;;;2.30;99.90;;;;;;5011096;28;20033;-73
2021/03/02 07:24:11;;;;;;;47.75;22.08;;;2.40;99.90;;;;;;5008957;28;20030;-74
2021/03/02 07:26:39;;;;;;;52.78;22.45;;;2.50;99.90;;;;;;5010577;28;20548;-73
2021/03/02 07:29:05;;;;;;;46.72;21.23;;;2.60;99.90;;;;;;5010482;28;20084;-73
2021/03/02 07:31:31;;;;;;;52.63;21.77;;;2.70;99.90;;;;;;5010907;28;20426;-74
2021/03/02 07:34:00;;;;;;;50.00;20.83;;;2.80;99.90;;;;;;5010210;28;20022;-77
2021/03/02 07:36:25;;;;;;;46.50;21.60;;;2.80;99.90;;;;;;5011900;28;20030;-79
2021/03/02 07:39:11;;;;;;;50.50;21.92;;;2.90;99.90;;;;;;5010510;28;20030;-80
2021/03/02 07:41:37;;;;;;;52.85;22.10;;;3.00;99.90;;;;;;5009146;28;20045;-79
2021/03/02 07:44:03;;;;;;;60.13;22.77;;;3.10;99.90;;;;;;5011515;28;20068;-80
2021/03/02 07:46:29;;;;;;;47.88;20.40;;;3.20;99.90;;;;;;5010660;28;20026;-80
2021/03/02 07:48:54;;;;;;;47.20;21.80;;;3.30;99.90;;;;;;5012366;28;20018;-80
2021/03/02 07:51:24;;;;;;;55.10;20.85;;;3.30;99.90;;;;;;5015171;28;20061;-79
2021/03/02 07:54:11;;;;;;;53.70;21.63;;;3.40;99.90;;;;;;5016060;28;20064;-80
2021/03/02 07:56:36;;;;;;;46.67;20.77;;;3.40;99.90;;;;;;5024031;28;20100;-80
2021/03/02 07:59:05;;;;;;;43.70;20.98;;;3.60;99.90;;;;;;5024424;28;20034;-79
2021/03/02 08:01:32;;;;;;;43.22;20.33;;;3.60;99.90;;;;;;5017928;28;20041;-80
2021/03/02 08:04:15;;;;;;;48.83;21.85;;;3.60;99.90;;;;;;5018964;28;20026;-80
2021/03/02 08:06:50;;;;;;;43.53;19.08;;;3.80;99.90;;;;;;5018677;28;20045;-82
2021/03/02 08:09:21;;;;;;;47.97;21.67;;;3.90;99.90;;;;;;5016013;28;20160;-79
2021/03/02 08:11:47;;;;;;;42.92;18.92;;;3.90;99.90;;;;;;5013650;28;20029;-81
2021/03/02 08:14:16;;;;;;;41.00;20.70;;;4.00;99.90;;;;;;5005071;28;20026;-81
2021/03/02 08:16:58;;;;;;;43.05;19.58;;;4.10;99.90;;;;;;5016669;28;20422;-82
2021/03/02 08:20:04;;;;;;;40.00;19.95;;;4.10;99.90;;;;;;5017185;28;20029;-82
2021/03/02 08:22:33;;;;;;;39.13;19.63;;;4.20;99.90;;;;;;4994466;28;20158;-82
2021/03/02 08:25:04;;;;;;;38.38;19.85;;;4.30;99.90;;;;;;5004218;28;20034;-82
2021/03/02 08:27:40;;;;;;;40.10;19.55;;;4.30;99.90;;;;;;5000260;28;20065;-82
2021/03/02 08:30:10;;;;;;;41.92;19.77;;;4.40;99.90;;;;;;5013587;28;20026;-82
2021/03/02 08:32:40;;;;;;;41.35;19.30;;;4.50;99.90;;;;;;5017553;28;20029;-84
2021/03/02 08:35:14;;;;;;;39.20;19.98;;;4.60;99.90;;;;;;5019452;28;20084;-80
2021/03/02 08:37:47;;;;;;;41.42;18.88;;;4.60;99.90;;;;;;5017140;28;20018;-80
2021/03/02 08:40:16;;;;;;;46.47;19.77;;;4.70;99.90;;;;;;5020475;28;20044;-82
2021/03/02 08:43:03;;;;;;;34.72;19.02;;;4.80;99.90;;;;;;5014739;28;20705;-80
2021/03/02 08:45:54;;;;;;;40.78;20.08;;;4.90;99.90;;;;;;5013217;28;20064;-82
2021/03/02 08:48:25;;;;;;;36.28;17.52;;;5.00;99.90;;;;;;5012108;28;20026;-79
2021/03/02 08:51:00;;;;;;;42.67;20.33;;;5.10;99.90;;;;;;5013105;28;20036;-76
2021/03/02 08:53:33;;;;;;;34.15;18.45;;;5.20;99.90;;;;;;5012037;28;20049;-77
2021/03/02 08:56:20;;;;;;;45.08;19.38;;;5.30;99.90;;;;;;5013557;28;20034;-77
2021/03/02 08:58:51;;;;;;;35.85;17.90;;;5.30;99.90;;;;;;5010254;28;20101;-77
2021/03/02 09:01:22;;;;;;;34.90;18.05;;;5.50;99.90;;;;;;5012571;28;20072;-77
2021/03/02 09:03:50;;;;;;;35.08;16.52;;;5.60;99.90;;;;;;5009870;28;20053;-77
2021/03/02 09:06:19;;;;;;;32.22;16.60;;;5.60;99.90;;;;;;5014493;28;20030;-75
2021/03/02 09:08:46;;;;;;;36.78;17.17;;;5.70;99.90;;;;;;5014570;28;20429;-77
2021/03/02 09:11:13;;;;;;;33.92;18.17;;;5.80;99.90;;;;;;5013733;28;20034;-77
2021/03/02 09:13:40;;;;;;;32.08;17.40;;;5.90;99.90;;;;;;5015301;28;20021;-78
2021/03/02 09:16:32;;;;;;;34.35;17.40;;;5.90;99.90;;;;;;5013327;28;20069;-76
2021/03/02 09:19:09;;;;;;;33.13;17.13;;;6.00;99.90;;;;;;5011110;28;20112;-76
2021/03/02 09:21:36;;;;;;;33.70;17.80;;;6.10;99.90;;;;;;5014193;28;20024;-76
2021/03/02 09:24:02;;;;;;;34.92;17.88;;;6.20;99.90;;;;;;5013867;28;20052;-77
2021/03/02 09:26:29;;;;;;;36.20;17.13;;;6.30;99.90;;;;;;5013412;28;20108;-77
2021/03/02 09:28:59;;;;;;;31.23;17.60;;;6.40;99.90;;;;;;5014048;28;20021;-77
2021/03/02 09:31:27;;;;;;;34.38;17.23;;;6.40;99.90;;;;;;5014362;28;20033;-76
2021/03/02 09:33:54;;;;;;;34.70;17.77;;;6.50;99.90;;;;;;5012990;28;20095;-76
2021/03/02 09:36:24;;;;;;;31.02;16.80;;;6.60;99.90;;;;;;5013371;28;20470;-76
2021/03/02 09:38:52;;;;;;;34.27;17.67;;;6.70;99.90;;;;;;5013203;28;20053;-77
2021/03/02 09:41:41;;;;;;;25.50;15.80;;;6.80;99.90;;;;;;5013354;28;20323;-77
2021/03/02 09:44:20;;;;;;;31.63;15.73;;;6.90;99.90;;;;;;5014167;28;20026;-77
2021/03/02 09:46:49;;;;;;;28.88;14.45;;;7.00;99.90;;;;;;5013195;28;20018;-77
2021/03/02 09:49:36;;;;;;;29.95;16.15;;;7.10;99.90;;;;;;5013631;28;20426;-76
2021/03/02 09:52:03;;;;;;;29.77;16.00;;;7.20;99.90;;;;;;5013391;28;20018;-74
2021/03/02 09:54:28;;;;;;;27.73;15.57;;;7.30;99.90;;;;;;5008784;28;20062;-76
2021/03/02 09:56:57;;;;;;;33.30;16.58;;;7.40;99.90;;;;;;5008806;28;20073;-76
2021/03/02 09:59:25;;;;;;;26.38;15.65;;;7.40;99.90;;;;;;5013571;28;20052;-75
2021/03/02 10:01:51;;;;;;;32.70;17.55;;;7.50;99.90;;;;;;5012412;28;20030;-76
2021/03/02 10:04:17;;;;;;;28.20;15.45;;;7.60;99.90;;;;;;5012810;28;20026;-76
2021/03/02 10:06:44;;;;;;;24.85;15.43;;;7.70;99.90;;;;;;5012890;28;20472;-76
2021/03/02 10:09:22;;;;;;;27.15;15.20;;;7.80;99.90;;;;;;5012489;28;20038;-75
2021/03/02 10:12:07;;;;;;;25.63;15.07;;;7.90;99.90;;;;;;5012970;28;20072;-76
2021/03/02 10:14:37;;;;;;;28.27;14.73;;;7.90;99.90;;;;;;5012188;28;20053;-76
2021/03/02 10:17:03;;;;;;;24.48;14.82;;;8.00;99.90;;;;;;5012647;28;20022;-75
2021/03/02 10:19:32;;;;;;;20.95;14.02;;;8.10;99.90;;;;;;5012362;28;20037;-76
2021/03/02 10:21:59;;;;;;;26.50;14.40;;;8.20;99.90;;;;;;5009155;28;20121;-76
2021/03/02 10:24:35;;;;;;;20.65;13.70;;;8.30;99.90;;;;;;5013004;28;20032;-77
2021/03/02 10:27:11;;;;;;;21.88;14.00;;;8.40;99.90;;;;;;5008824;28;20017;-78
2021/03/02 10:29:36;;;;;;;22.60;13.60;;;8.40;99.90;;;;;;5012757;28;20033;-76
2021/03/02 10:32:05;;;;;;;25.38;15.15;;;8.40;99.90;;;;;;5010002;28;20462;-76
2021/03/02 10:34:35;;;;;;;23.67;14.63;;;8.50;99.90;;;;;;5009962;28;20030;-77
2021/03/02 10:37:02;;;;;;;22.00;14.35;;;8.50;99.90;;;;;;5011610;28;20017;-76
2021/03/02 10:39:28;;;;;;;23.23;14.73;;;8.60;99.90;;;;;;5012354;28;20028;-78
2021/03/02 10:41:53;;;;;;;24.42;15.20;;;8.70;99.90;;;;;;5011576;28;20038;-77
2021/03/02 10:44:20;;;;;;;24.02;14.43;;;8.80;99.90;;;;;;5011493;28;20493;-76
2021/03/02 10:46:46;;;;;;;22.50;13.63;;;8.90;99.90;;;;;;5009579;28;20449;-76
2021/03/02 10:49:11;;;;;;;18.52;13.07;;;9.00;99.90;;;;;;5011494;28;20018;-76
2021/03/02 10:51:38;;;;;;;24.80;14.40;;;9.00;99.90;;;;;;5012608;28;20030;-76
2021/03/02 10:54:03;;;;;;;18.67;12.85;;;9.10;99.90;;;;;;5012201;28;20064;-77
2021/03/02 10:56:29;;;;;;;21.55;14.00;;;9.20;99.90;;;;;;5012366;28;20022;-76
2021/03/02 10:58:55;;;;;;;21.90;14.65;;;9.20;99.90;;;;;;5012181;28;20018;-76
2021/03/02 11:01:21;;;;;;;19.15;14.15;;;9.30;99.90;;;;;;5010806;28;20057;-76
2021/03/02 11:03:48;;;;;;;21.67;13.43;;;9.40;99.90;;;;;;5011085;28;20072;-76
2021/03/02 11:06:15;;;;;;;22.67;13.35;;;9.40;99.90;;;;;;5011354;28;20029;-77
2021/03/02 11:08:44;;;;;;;19.70;13.90;;;9.50;99.90;;;;;;5011568;28;20030;-77
2021/03/02 11:11:10;;;;;;;27.80;14.75;;;9.50;99.90;;;;;;5009193;28;20066;-78
2021/03/02 11:13:35;;;;;;;21.42;14.30;;;9.60;99.90;;;;;;5011705;28;20045;-77
2021/03/02 11:16:01;;;;;;;21.55;14.15;;;9.70;99.90;;;;;;5011519;28;20030;-76
2021/03/02 11:18:26;;;;;;;19.10;12.73;;;9.80;99.90;;;;;;5008017;28;20029;-78
2021/03/02 11:20:52;;;;;;;19.63;12.45;;;9.80;99.90;;;;;;5011649;28;20474;-76
2021/03/02 11:23:18;;;;;;;22.38;13.25;;;9.90;99.90;;;;;;5011633;28;20474;-76
2021/03/02 11:25:43;;;;;;;19.73;12.95;;;10.00;99.90;;;;;;5010614;28;20018;-76
2021/03/02 11:28:10;;;;;;;21.77;13.52;;;10.00;99.90;;;;;;5012210;28;20131;-76
2021/03/02 11:30:37;;;;;;;28.17;14.40;;;10.10;99.90;;;;;;4998425;28;20489;-77
2021/03/02 11:33:03;;;;;;;23.35;13.95;;;10.10;99.90;;;;;;5010626;28;20026;-79
2021/03/02 11:35:29;;;;;;;20.13;13.20;;;10.20;99.90;;;;;;5011544;28;20497;-76
2021/03/02 11:37:55;;;;;;;20.30;14.27;;;10.30;99.90;;;;;;5012037;28;20069;-77
2021/03/02 11:40:22;;;;;;;20.40;12.73;;;9.80;99.90;;;;;;5011007;28;20038;-77
2021/03/02 11:42:52;;;;;;;19.98;12.45;;;10.40;99.90;;;;;;5011387;28;20042;-76
2021/03/02 11:45:20;;;;;;;23.40;14.02;;;10.50;99.90;;;;;;5011004;28;20018;-77
2021/03/02 11:47:45;;;;;;;24.15;14.00;;;10.50;99.90;;;;;;5011193;28;20049;-77
2021/03/02 11:50:11;;;;;;;17.83;13.02;;;10.60;99.90;;;;;;5011363;28;20323;-77
2021/03/02 11:52:38;;;;;;;18.48;13.55;;;10.70;99.90;;;;;;5011173;28;20038;-78
2021/03/02 11:55:05;;;;;;;23.95;13.45;;;10.80;99.90;;;;;;5011343;28;20046;-78
2021/03/02 11:57:31;;;;;;;16.23;13.55;;;10.80;99.90;;;;;;5011535;28;20058;-79
2021/03/02 11:59:57;;;;;;;20.60;13.60;;;10.90;99.90;;;;;;5008470;28;20030;-78
2021/03/02 12:02:23;;;;;;;21.15;13.52;;;11.00;99.90;;;;;;5007618;28;20064;-80
2021/03/02 12:04:52;;;;;;;18.48;12.82;;;11.00;99.90;;;;;;5013272;28;20412;-79
2021/03/02 12:07:21;;;;;;;23.77;13.23;;;11.10;99.90;;;;;;5017660;28;20022;-79
2021/03/02 12:09:47;;;;;;;21.05;14.32;;;11.20;99.90;;;;;;5012636;28;20071;-78
2021/03/02 12:12:12;;;;;;;22.38;14.23;;;11.30;99.90;;;;;;5015385;28;20044;-78
2021/03/02 12:14:38;;;;;;;18.48;13.05;;;11.30;99.90;;;;;;5014981;28;20029;-79
2021/03/02 12:17:04;;;;;;;19.38;13.38;;;11.40;99.90;;;;;;5016741;28;20026;-78
2021/03/02 12:19:30;;;;;;;20.30;13.25;;;11.50;99.90;;;;;;5011551;28;20053;-77
2021/03/02 12:21:56;;;;;;;19.90;14.02;;;11.60;99.90;;;;;;5015247;28;20042;-78
2021/03/02 12:24:24;;;;;;;23.67;13.63;;;11.70;99.90;;;;;;5014304;28;20378;-78
2021/03/02 12:26:50;;;;;;;18.65;13.27;;;11.80;99.90;;;;;;5013220;28;20482;-78
2021/03/02 12:29:16;;;;;;;17.20;12.95;;;11.80;99.90;;;;;;5012106;28;20034;-76
2021/03/02 12:31:45;;;;;;;16.08;12.80;;;12.00;99.90;;;;;;5011662;28;20029;-77
2021/03/02 12:34:11;;;;;;;22.40;13.48;;;12.00;99.90;;;;;;5011127;28;20018;-75
2021/03/02 12:36:37;;;;;;;24.10;12.93;;;12.00;99.90;;;;;;5011964;28;20113;-79
2021/03/02 12:39:04;;;;;;;17.50;12.60;;;12.10;99.90;;;;;;5014954;28;20018;-79
2021/03/02 12:41:29;;;;;;;18.35;12.40;;;12.10;99.90;;;;;;5015000;28;20416;-79
2021/03/02 12:43:55;;;;;;;16.77;12.57;;;12.20;99.90;;;;;;5016406;28;20026;-79